Time;durP1;ratioP1;P1;durP2;ratioP2;P2;SDS_P1;SDS_P2;PMS_P1;PMS_P2;Temp;Humidity;BMP_temperature;BMP_pressure;BME280_temperature;BME280_humidity;BME280_pressure;Samples;Min_cycle;Max_cycle;Signal;HPM_P1;HPM_P2
2024/01/30 00:01:47;;;;;;;7.37;5.93;;;5.00;91.60;;;;;;944808;149;27366;-79
2024/01/30 00:04:13;;;;;;;7.73;6.43;;;5.10;91.70;;;;;;946129;149;27289;-80
2024/01/30 00:06:40;;;;;;;9.83;6.33;;;5.00;91.70;;;;;;944499;149;28684;-81
2024/01/30 00:09:06;;;;;;;6.87;5.77;;;5.00;91.70;;;;;;943723;149;27411;-80
2024/01/30 00:11:33;;;;;;;8.27;6.80;;;5.00;91.80;;;;;;944466;149;27311;-83
2024/01/30 00:14:00;;;;;;;8.43;6.47;;;5.00;91.80;;;;;;946171;149;27377;-80
2024/01/30 00:16:26;;;;;;;6.77;5.53;;;5.00;91.90;;;;;;943363;149;27823;-83
2024/01/30 00:18:53;;;;;;;8.53;6.50;;;5.00;92.00;;;;;;944532;149;27451;-80
2024/01/30 00:21:19;;;;;;;6.93;6.20;;;5.00;92.10;;;;;;944793;149;27246;-80
2024/01/30 00:23:46;;;;;;;11.07;6.43;;;5.00;92.20;;;;;;943851;149;27322;-80
2024/01/30 00:26:14;;;;;;;6.57;5.97;;;5.00;92.30;;;;;;944534;149;27793;-80
2024/01/30 00:28:39;;;;;;;5.80;5.30;;;5.00;92.30;;;;;;946565;148;27370;-80
2024/01/30 00:31:06;;;;;;;7.70;5.63;;;5.00;92.30;;;;;;943104;149;27387;-80
2024/01/30 00:33:32;;;;;;;6.43;5.73;;;5.00;92.40;;;;;;944845;149;27284;-80
2024/01/30 00:35:59;;;;;;;7.33;6.00;;;5.00;92.40;;;;;;942880;149;27938;-80
2024/01/30 00:38:25;;;;;;;6.87;5.57;;;5.00;92.20;;;;;;945672;149;27273;-84
2024/01/30 00:40:52;;;;;;;8.97;5.97;;;5.00;92.40;;;;;;937193;149;27470;-80
2024/01/30 00:43:19;;;;;;;7.60;6.50;;;5.00;92.50;;;;;;928501;151;27318;-80
2024/01/30 00:45:45;;;;;;;7.67;5.70;;;5.00;92.60;;;;;;929766;151;27362;-80
2024/01/30 00:48:12;;;;;;;8.67;6.60;;;4.90;92.50;;;;;;930187;151;27781;-80
2024/01/30 00:50:38;;;;;;;6.80;6.10;;;4.90;92.60;;;;;;927678;151;27344;-80
2024/01/30 00:53:05;;;;;;;7.33;5.77;;;4.90;92.80;;;;;;929223;151;27288;-80
2024/01/30 00:55:31;;;;;;;6.83;5.70;;;4.90;92.50;;;;;;929280;151;27290;-80
2024/01/30 00:57:58;;;;;;;9.77;7.03;;;4.90;92.50;;;;;;928180;151;27394;-81
2024/01/30 01:00:28;;;;;;;9.27;5.87;;;4.90;92.50;;;;;;938942;149;27338;-84
2024/01/30 01:02:51;;;;;;;8.47;6.10;;;4.90;92.50;;;;;;922040;153;27460;-80
2024/01/30 01:05:18;;;;;;;8.23;6.90;;;4.90;92.60;;;;;;940948;149;27237;-80
2024/01/30 01:07:47;;;;;;;7.73;6.20;;;4.80;92.70;;;;;;938880;149;27316;-80
2024/01/30 01:10:13;;;;;;;8.50;6.97;;;4.80;92.70;;;;;;939479;149;27387;-84
2024/01/30 01:12:38;;;;;;;7.40;6.57;;;4.80;92.80;;;;;;938960;150;27327;-81
2024/01/30 01:15:04;;;;;;;9.07;6.80;;;4.80;92.80;;;;;;938796;150;27257;-81
2024/01/30 01:17:31;;;;;;;7.87;6.53;;;4.70;92.80;;;;;;937497;150;27373;-82
2024/01/30 01:19:57;;;;;;;7.43;6.37;;;4.70;92.90;;;;;;936478;150;27292;-82
2024/01/30 01:22:24;;;;;;;9.20;6.90;;;4.70;92.90;;;;;;938392;150;27333;-82
2024/01/30 01:24:50;;;;;;;9.37;7.00;;;4.70;92.90;;;;;;938517;150;27449;-82
2024/01/30 01:27:17;;;;;;;7.60;6.80;;;4.60;93.00;;;;;;925974;151;27437;-82
2024/01/30 01:29:44;;;;;;;7.13;6.43;;;4.60;93.00;;;;;;914834;152;27306;-82
2024/01/30 01:32:10;;;;;;;6.90;6.20;;;4.60;93.10;;;;;;927733;152;27371;-82
2024/01/30 01:34:37;;;;;;;9.50;6.13;;;4.60;93.10;;;;;;927963;151;27458;-82
2024/01/30 01:37:03;;;;;;;9.63;6.77;;;4.50;93.10;;;;;;933872;151;27326;-81
2024/01/30 01:39:30;;;;;;;7.37;6.47;;;4.50;93.20;;;;;;917096;151;27405;-82
2024/01/30 01:41:57;;;;;;;7.70;6.03;;;4.40;93.20;;;;;;933317;149;27333;-82
2024/01/30 01:44:23;;;;;;;7.67;6.37;;;4.40;93.20;;;;;;947599;148;27323;-83
2024/01/30 01:46:50;;;;;;;7.87;7.07;;;4.40;93.30;;;;;;947933;147;27312;-81
2024/01/30 01:49:16;;;;;;;8.57;6.17;;;4.40;93.40;;;;;;946313;147;27244;-81
2024/01/30 01:51:44;;;;;;;7.23;6.17;;;4.30;93.50;;;;;;947230;147;27321;-83
2024/01/30 01:54:10;;;;;;;8.20;6.50;;;4.30;93.50;;;;;;948098;146;27512;-82
2024/01/30 01:56:37;;;;;;;7.27;6.10;;;4.30;93.60;;;;;;948220;147;27355;-82
2024/01/30 01:59:07;;;;;;;6.63;5.97;;;4.20;93.60;;;;;;944316;147;27285;-82
2024/01/30 02:01:32;;;;;;;9.73;6.10;;;4.20;93.80;;;;;;945780;148;27317;-82
2024/01/30 02:03:58;;;;;;;7.27;5.80;;;4.20;93.90;;;;;;946601;148;27324;-82
2024/01/30 02:06:25;;;;;;;7.50;5.77;;;4.20;94.00;;;;;;950530;148;28384;-81
2024/01/30 02:08:52;;;;;;;6.63;5.93;;;4.20;94.10;;;;;;932563;149;27403;-81
2024/01/30 02:11:21;;;;;;;7.50;6.17;;;4.20;94.10;;;;;;946333;147;27304;-86
2024/01/30 02:13:48;;;;;;;7.73;6.27;;;4.10;94.00;;;;;;945302;147;27345;-80
2024/01/30 02:16:14;;;;;;;6.23;5.53;;;4.10;94.10;;;;;;930286;149;27362;-80
2024/01/30 02:18:47;;;;;;;8.47;6.10;;;4.10;94.10;;;;;;949906;147;27286;-80
2024/01/30 02:21:10;;;;;;;7.00;6.00;;;4.00;94.20;;;;;;947450;148;27398;-81
2024/01/30 02:23:36;;;;;;;7.20;5.87;;;4.00;94.40;;;;;;928876;150;27382;-87
2024/01/30 02:26:03;;;;;;;7.07;6.37;;;4.00;94.60;;;;;;943038;148;27369;-87
2024/01/30 02:28:29;;;;;;;7.37;6.37;;;4.00;94.80;;;;;;929796;150;27377;-86
2024/01/30 02:30:56;;;;;;;7.30;6.30;;;4.00;95.00;;;;;;946751;147;27429;-83
2024/01/30 02:33:23;;;;;;;7.53;6.57;;;4.00;95.00;;;;;;946407;149;27369;-87
2024/01/30 02:35:49;;;;;;;8.20;6.67;;;4.00;95.00;;;;;;948591;149;27291;-86
2024/01/30 02:38:16;;;;;;;10.67;6.20;;;4.00;95.10;;;;;;942229;148;27307;-86
2024/01/30 02:40:42;;;;;;;8.50;6.30;;;4.00;95.10;;;;;;942486;149;27322;-83
2024/01/30 02:43:09;;;;;;;7.27;6.27;;;4.00;95.10;;;;;;932788;149;27392;-87
2024/01/30 02:45:36;;;;;;;7.10;6.40;;;4.00;95.10;;;;;;933022;150;28702;-87
2024/01/30 02:48:02;;;;;;;7.47;6.70;;;4.00;95.10;;;;;;939826;149;27310;-87
2024/01/30 02:50:29;;;;;;;9.07;6.80;;;4.00;95.10;;;;;;941595;149;27269;-87
2024/01/30 02:52:55;;;;;;;9.13;7.07;;;4.00;95.20;;;;;;939367;149;27375;-87
2024/01/30 02:55:22;;;;;;;6.50;5.80;;;3.90;95.30;;;;;;941598;148;27346;-87
2024/01/30 02:57:48;;;;;;;6.67;6.03;;;3.90;95.40;;;;;;941398;148;27824;-87
2024/01/30 03:00:15;;;;;;;7.70;6.47;;;3.90;95.50;;;;;;939900;148;27328;-87
2024/01/30 03:02:42;;;;;;;7.00;6.30;;;4.00;95.60;;;;;;920699;151;27704;-84
2024/01/30 03:05:08;;;;;;;7.03;5.97;;;4.00;95.80;;;;;;938266;150;27447;-87
2024/01/30 03:07:35;;;;;;;6.50;5.30;;;4.00;95.90;;;;;;922199;151;27367;-87
2024/01/30 03:10:01;;;;;;;8.27;6.27;;;4.00;95.90;;;;;;938680;149;27346;-86
2024/01/30 03:12:28;;;;;;;7.93;6.53;;;4.00;95.90;;;;;;939744;149;27413;-86
2024/01/30 03:14:55;;;;;;;8.33;6.17;;;4.00;95.90;;;;;;938626;149;27373;-83
2024/01/30 03:17:21;;;;;;;7.73;5.67;;;4.00;95.90;;;;;;941335;149;27351;-87
2024/01/30 03:19:48;;;;;;;8.87;6.03;;;4.00;95.90;;;;;;938701;149;27456;-87
2024/01/30 03:22:14;;;;;;;8.60;6.53;;;4.00;95.80;;;;;;939728;149;27408;-80
2024/01/30 03:24:41;;;;;;;7.00;6.13;;;4.00;95.80;;;;;;937776;149;27298;-81
2024/01/30 03:27:07;;;;;;;6.27;5.67;;;4.00;95.80;;;;;;926730;151;27464;-80
2024/01/30 03:29:34;;;;;;;7.87;5.97;;;4.00;95.90;;;;;;937849;148;27317;-80
2024/01/30 03:32:01;;;;;;;7.30;6.33;;;3.90;95.90;;;;;;926620;150;27331;-80
2024/01/30 03:34:27;;;;;;;7.17;6.17;;;3.90;96.00;;;;;;939839;149;27370;-83
2024/01/30 03:36:54;;;;;;;8.83;6.00;;;3.90;96.00;;;;;;938113;149;27373;-81
2024/01/30 03:39:20;;;;;;;6.23;5.47;;;3.90;96.10;;;;;;939122;148;28574;-79
2024/01/30 03:41:47;;;;;;;7.37;6.07;;;3.90;96.20;;;;;;929178;150;27372;-80
2024/01/30 03:44:14;;;;;;;7.90;6.33;;;3.90;96.30;;;;;;915092;151;27874;-80
2024/01/30 03:46:40;;;;;;;6.67;5.60;;;3.90;96.30;;;;;;911546;152;27485;-82
2024/01/30 03:49:07;;;;;;;8.90;6.40;;;3.90;96.40;;;;;;896708;156;27516;-80
2024/01/30 03:51:33;;;;;;;7.10;5.93;;;3.90;96.40;;;;;;905023;153;27321;-80
2024/01/30 03:54:00;;;;;;;8.30;6.13;;;3.90;96.40;;;;;;905297;153;27360;-81
2024/01/30 03:56:26;;;;;;;9.67;6.63;;;3.90;96.40;;;;;;917855;153;27457;-83
2024/01/30 03:58:53;;;;;;;6.80;6.03;;;3.90;96.40;;;;;;907413;154;27457;-81
2024/01/30 04:01:20;;;;;;;7.30;6.60;;;3.90;96.30;;;;;;914940;150;27309;-80
2024/01/30 04:03:46;;;;;;;9.07;5.83;;;3.90;96.30;;;;;;915995;150;27336;-80
2024/01/30 04:06:13;;;;;;;8.93;6.63;;;3.80;96.30;;;;;;914773;151;27476;-81
2024/01/30 04:08:39;;;;;;;7.57;5.93;;;3.80;96.30;;;;;;914002;153;27510;-81
2024/01/30 04:11:06;;;;;;;7.80;6.20;;;3.80;96.30;;;;;;914797;153;27322;-82
2024/01/30 04:13:36;;;;;;;6.83;5.90;;;3.80;96.40;;;;;;914903;153;27345;-80
2024/01/30 04:16:02;;;;;;;7.00;6.10;;;3.80;96.40;;;;;;914434;153;27305;-81
2024/01/30 04:18:29;;;;;;;6.00;5.40;;;3.70;96.40;;;;;;913231;153;27387;-85
2024/01/30 04:20:55;;;;;;;12.23;6.40;;;3.70;96.50;;;;;;915353;153;27377;-80
2024/01/30 04:23:22;;;;;;;8.33;6.07;;;3.70;96.50;;;;;;915142;153;27317;-81
2024/01/30 04:25:49;;;;;;;7.43;6.50;;;3.70;96.60;;;;;;912770;153;27443;-81
2024/01/30 04:28:15;;;;;;;6.07;5.40;;;3.70;96.70;;;;;;907433;154;27425;-82
2024/01/30 04:30:42;;;;;;;6.93;6.23;;;3.70;96.80;;;;;;906585;153;27383;-80
2024/01/30 04:33:08;;;;;;;7.17;5.80;;;3.60;96.80;;;;;;916723;150;27450;-82
2024/01/30 04:35:35;;;;;;;5.67;5.17;;;3.60;96.70;;;;;;914868;152;27471;-83
2024/01/30 04:38:01;;;;;;;6.67;5.80;;;3.60;96.70;;;;;;908245;153;27341;-82
2024/01/30 04:40:28;;;;;;;6.10;5.50;;;3.60;96.70;;;;;;907355;154;27390;-83
2024/01/30 04:42:55;;;;;;;7.10;6.40;;;3.60;96.60;;;;;;900981;154;27363;-87
2024/01/30 04:45:21;;;;;;;9.10;6.10;;;3.60;96.60;;;;;;923589;153;27323;-87
2024/01/30 04:47:48;;;;;;;6.43;5.83;;;3.50;96.60;;;;;;942586;149;27409;-84
2024/01/30 04:50:14;;;;;;;6.43;5.83;;;3.50;96.60;;;;;;942622;148;27383;-87
2024/01/30 04:52:41;;;;;;;7.33;5.93;;;3.50;96.70;;;;;;944464;149;27273;-87
2024/01/30 04:55:08;;;;;;;5.80;5.20;;;3.50;96.70;;;;;;942813;149;27408;-88
2024/01/30 04:57:34;;;;;;;7.23;6.23;;;3.40;96.80;;;;;;941092;149;27385;-87
2024/01/30 05:00:01;;;;;;;7.80;5.97;;;3.40;96.80;;;;;;941850;149;27454;-84
2024/01/30 05:02:28;;;;;;;7.53;5.93;;;3.40;96.90;;;;;;941352;149;27355;-88
2024/01/30 05:04:54;;;;;;;7.10;5.97;;;3.40;96.90;;;;;;943559;149;27331;-88
2024/01/30 05:07:21;;;;;;;9.27;6.27;;;3.40;97.00;;;;;;941735;149;27278;-88
2024/01/30 05:09:47;;;;;;;7.13;6.27;;;3.40;97.00;;;;;;942558;149;27372;-85
2024/01/30 05:12:14;;;;;;;10.43;6.00;;;3.30;97.00;;;;;;940972;149;27381;-88
2024/01/30 05:14:40;;;;;;;7.13;6.43;;;3.30;97.00;;;;;;940812;149;27401;-88
2024/01/30 05:17:09;;;;;;;6.83;6.23;;;3.30;97.10;;;;;;942705;149;27656;-88
2024/01/30 05:19:33;;;;;;;11.10;6.03;;;3.30;97.20;;;;;;942707;149;27384;-87
2024/01/30 05:22:00;;;;;;;7.47;6.13;;;3.30;97.20;;;;;;941908;149;27439;-88
2024/01/30 05:24:27;;;;;;;7.07;6.23;;;3.30;97.30;;;;;;942437;149;28521;-87
2024/01/30 05:26:53;;;;;;;7.13;5.93;;;3.30;97.40;;;;;;942360;149;27454;-88
2024/01/30 05:29:20;;;;;;;9.30;6.00;;;3.30;97.40;;;;;;943018;149;27412;-86
2024/01/30 05:31:46;;;;;;;7.43;6.00;;;3.20;97.40;;;;;;944335;149;27294;-84
2024/01/30 05:34:13;;;;;;;7.57;6.07;;;3.20;97.40;;;;;;942347;149;27387;-88
2024/01/30 05:36:40;;;;;;;6.67;5.97;;;3.20;97.40;;;;;;948991;147;27422;-87
2024/01/30 05:39:07;;;;;;;8.50;6.20;;;3.20;97.40;;;;;;939318;149;27295;-88
2024/01/30 05:41:33;;;;;;;6.53;5.93;;;3.20;97.40;;;;;;944674;147;27262;-87
2024/01/30 05:43:59;;;;;;;8.60;6.33;;;3.20;97.50;;;;;;945182;148;27349;-86
2024/01/30 05:46:26;;;;;;;8.23;6.37;;;3.20;97.60;;;;;;939605;149;27494;-86
2024/01/30 05:48:52;;;;;;;9.67;6.23;;;3.20;97.70;;;;;;942701;149;27443;-85
2024/01/30 05:51:19;;;;;;;7.53;6.73;;;3.20;97.70;;;;;;942097;149;27363;-84
2024/01/30 05:53:46;;;;;;;10.90;8.43;;;3.20;97.80;;;;;;942393;149;27322;-86
2024/01/30 05:56:12;;;;;;;10.30;7.77;;;3.10;97.80;;;;;;943834;149;27336;-88
2024/01/30 05:58:39;;;;;;;9.47;8.40;;;3.20;97.90;;;;;;941498;149;27402;-88
2024/01/30 06:01:11;;;;;;;10.60;6.80;;;3.10;98.00;;;;;;942289;149;27331;-87
2024/01/30 06:03:38;;;;;;;7.83;6.87;;;3.20;98.00;;;;;;941074;149;27567;-87
2024/01/30 06:06:04;;;;;;;10.53;8.50;;;3.20;98.10;;;;;;941521;149;27721;-88
2024/01/30 06:08:31;;;;;;;11.83;7.90;;;3.10;98.30;;;;;;941945;149;27350;-87
2024/01/30 06:10:57;;;;;;;11.47;8.20;;;3.20;98.30;;;;;;942893;149;27286;-84
2024/01/30 06:13:24;;;;;;;8.63;7.03;;;3.20;98.60;;;;;;943682;149;27448;-81
2024/01/30 06:15:50;;;;;;;9.33;7.30;;;3.20;98.60;;;;;;943729;149;27459;-87
2024/01/30 06:18:17;;;;;;;10.70;7.00;;;3.20;98.60;;;;;;942005;149;27268;-88
2024/01/30 06:20:44;;;;;;;7.93;7.10;;;3.20;98.70;;;;;;943355;149;27346;-88
2024/01/30 06:23:12;;;;;;;7.77;6.87;;;3.20;98.60;;;;;;940626;149;27675;-84
2024/01/30 06:25:37;;;;;;;8.20;6.63;;;3.20;98.60;;;;;;939966;149;27446;-87
2024/01/30 06:28:03;;;;;;;7.97;6.90;;;3.20;98.60;;;;;;945839;149;27263;-86
2024/01/30 06:30:30;;;;;;;8.07;6.50;;;3.20;98.60;;;;;;942177;149;27310;-84
2024/01/30 06:32:56;;;;;;;9.40;7.33;;;3.20;98.60;;;;;;943704;149;27349;-86
2024/01/30 06:35:23;;;;;;;8.70;6.57;;;3.30;98.60;;;;;;942634;149;27838;-88
2024/01/30 06:37:50;;;;;;;8.53;6.30;;;3.30;98.60;;;;;;941459;149;27368;-85
2024/01/30 06:40:16;;;;;;;9.17;6.73;;;3.30;98.60;;;;;;944008;149;27465;-87
2024/01/30 06:42:43;;;;;;;8.03;6.57;;;3.30;98.60;;;;;;941118;149;27299;-87
2024/01/30 06:45:09;;;;;;;6.90;5.83;;;3.30;98.60;;;;;;935304;149;27881;-83
2024/01/30 06:47:36;;;;;;;8.13;6.77;;;3.30;98.70;;;;;;930901;150;27500;-87
2024/01/30 06:50:03;;;;;;;8.73;6.80;;;3.30;98.60;;;;;;938723;149;27358;-87
2024/01/30 06:52:29;;;;;;;8.07;6.87;;;3.30;98.60;;;;;;940173;149;27347;-87
2024/01/30 06:54:56;;;;;;;7.63;6.53;;;3.30;98.70;;;;;;939416;149;27354;-83
2024/01/30 06:57:22;;;;;;;7.50;6.70;;;3.30;98.70;;;;;;941888;148;27350;-81
2024/01/30 06:59:49;;;;;;;7.10;6.40;;;3.30;98.70;;;;;;939661;148;27343;-80
2024/01/30 07:02:16;;;;;;;8.50;7.00;;;3.30;98.70;;;;;;939159;149;27275;-81
2024/01/30 07:04:42;;;;;;;8.27;6.60;;;3.30;98.70;;;;;;939471;148;27297;-82
2024/01/30 07:07:12;;;;;;;7.70;5.93;;;3.30;98.70;;;;;;938834;148;27369;-80
2024/01/30 07:09:36;;;;;;;6.90;6.17;;;3.30;98.80;;;;;;938507;148;27374;-81
2024/01/30 07:12:02;;;;;;;9.00;7.27;;;3.30;98.90;;;;;;915083;153;27793;-81
2024/01/30 07:14:28;;;;;;;9.10;6.67;;;3.30;98.90;;;;;;939884;149;27326;-80
2024/01/30 07:16:55;;;;;;;7.90;6.57;;;3.30;99.00;;;;;;942634;149;27367;-80
2024/01/30 07:19:22;;;;;;;7.63;6.43;;;3.30;99.20;;;;;;927371;150;28274;-80
2024/01/30 07:21:48;;;;;;;7.67;6.70;;;3.30;99.30;;;;;;922636;151;27323;-81
2024/01/30 07:24:15;;;;;;;7.17;6.47;;;3.40;99.40;;;;;;940441;148;27283;-80
2024/01/30 07:26:41;;;;;;;7.50;6.80;;;3.40;99.50;;;;;;937895;148;27360;-84
2024/01/30 07:29:08;;;;;;;6.67;5.97;;;3.40;99.60;;;;;;940720;148;27426;-80
2024/01/30 07:31:35;;;;;;;9.83;7.73;;;3.50;99.70;;;;;;924098;151;27315;-81
2024/01/30 07:34:02;;;;;;;13.47;8.83;;;3.50;99.90;;;;;;939354;149;27291;-81
2024/01/30 07:36:28;;;;;;;10.53;8.00;;;3.50;99.90;;;;;;937436;148;27332;-82
2024/01/30 07:38:54;;;;;;;11.80;8.10;;;3.60;99.90;;;;;;937893;148;27352;-80
2024/01/30 07:41:21;;;;;;;11.07;8.47;;;3.70;99.90;;;;;;940661;149;27287;-80
2024/01/30 07:43:47;;;;;;;10.73;9.03;;;3.70;99.90;;;;;;922181;151;27350;-80
2024/01/30 07:46:14;;;;;;;10.40;8.27;;;3.80;99.90;;;;;;947137;148;27330;-81
2024/01/30 07:48:41;;;;;;;10.80;8.03;;;3.90;99.90;;;;;;947582;148;27453;-84
2024/01/30 07:51:07;;;;;;;8.23;7.03;;;4.00;99.90;;;;;;931965;150;27345;-80
2024/01/30 07:53:34;;;;;;;9.37;7.10;;;4.10;99.90;;;;;;940361;149;27270;-80
2024/01/30 07:56:00;;;;;;;7.90;6.83;;;4.20;99.90;;;;;;941656;149;27346;-81
2024/01/30 07:58:27;;;;;;;7.37;6.53;;;4.30;99.90;;;;;;941695;149;27435;-84
2024/01/30 08:00:54;;;;;;;7.83;6.70;;;4.40;99.90;;;;;;930381;151;27456;-80
2024/01/30 08:03:20;;;;;;;7.33;6.60;;;4.50;99.90;;;;;;945112;148;27266;-81
2024/01/30 08:05:47;;;;;;;7.93;6.67;;;4.60;99.90;;;;;;947329;148;27338;-80
2024/01/30 08:08:13;;;;;;;8.57;7.67;;;4.70;99.90;;;;;;947550;148;27346;-81
2024/01/30 08:10:40;;;;;;;11.20;7.93;;;4.80;99.90;;;;;;945196;148;27373;-81
2024/01/30 08:13:08;;;;;;;9.73;7.37;;;5.00;99.90;;;;;;949045;148;27764;-80
2024/01/30 08:15:33;;;;;;;8.97;7.77;;;5.10;99.90;;;;;;945954;148;27309;-88
2024/01/30 08:18:00;;;;;;;8.70;7.20;;;5.20;99.90;;;;;;947345;148;27401;-87
2024/01/30 08:20:26;;;;;;;7.60;6.80;;;5.40;99.90;;;;;;948162;148;27433;-89
2024/01/30 08:22:53;;;;;;;9.77;6.73;;;5.60;99.90;;;;;;947503;148;27387;-89
2024/01/30 08:25:19;;;;;;;6.90;6.20;;;5.80;99.90;;;;;;944774;148;27294;-88
2024/01/30 08:27:46;;;;;;;8.37;6.77;;;6.00;99.90;;;;;;946071;148;27305;-87
2024/01/30 08:30:13;;;;;;;7.53;6.70;;;6.20;99.90;;;;;;945784;148;27504;-82
2024/01/30 08:32:39;;;;;;;6.83;6.23;;;6.40;99.90;;;;;;947914;148;27362;-88
2024/01/30 08:35:06;;;;;;;7.17;6.30;;;6.60;99.90;;;;;;947160;148;27310;-88
2024/01/30 08:37:32;;;;;;;8.27;6.67;;;6.80;99.90;;;;;;946676;148;27297;-86
2024/01/30 08:39:59;;;;;;;7.13;6.43;;;7.00;99.80;;;;;;946804;148;27778;-83
2024/01/30 08:42:25;;;;;;;7.50;6.70;;;7.20;99.30;;;;;;930735;151;27474;-88
2024/01/30 08:44:53;;;;;;;7.83;6.83;;;7.40;98.70;;;;;;932627;151;28945;-89
2024/01/30 08:47:19;;;;;;;7.73;6.70;;;7.50;98.30;;;;;;931798;148;27708;-88
2024/01/30 08:49:45;;;;;;;7.67;6.60;;;7.70;98.10;;;;;;923256;151;27444;-84
2024/01/30 08:52:12;;;;;;;7.00;6.30;;;7.80;97.70;;;;;;936666;150;27443;-88
2024/01/30 08:54:38;;;;;;;9.00;6.77;;;8.00;97.10;;;;;;940108;148;27271;-88
2024/01/30 08:57:05;;;;;;;8.90;6.87;;;8.10;96.40;;;;;;926929;151;28608;-87
2024/01/30 08:59:32;;;;;;;7.77;6.97;;;8.20;95.80;;;;;;937663;149;27293;-88
2024/01/30 09:01:59;;;;;;;8.47;6.90;;;8.30;95.50;;;;;;942813;149;27389;-87
2024/01/30 09:04:25;;;;;;;10.10;6.87;;;8.40;95.50;;;;;;939547;149;27412;-87
2024/01/30 09:06:51;;;;;;;8.03;6.37;;;8.40;95.20;;;;;;938142;149;27337;-88
2024/01/30 09:09:19;;;;;;;7.67;6.70;;;8.50;94.90;;;;;;940020;149;27436;-86
2024/01/30 09:11:44;;;;;;;6.50;5.90;;;8.60;94.60;;;;;;937650;149;27348;-82
2024/01/30 09:14:11;;;;;;;8.33;6.23;;;8.70;94.10;;;;;;924087;150;27487;-80
2024/01/30 09:16:38;;;;;;;6.33;5.73;;;8.70;93.70;;;;;;940045;148;27300;-80
2024/01/30 09:19:04;;;;;;;7.33;6.23;;;8.80;93.50;;;;;;937809;149;27301;-80
2024/01/30 09:21:31;;;;;;;7.27;6.07;;;8.80;93.30;;;;;;940661;149;27323;-82
2024/01/30 09:23:57;;;;;;;7.87;7.07;;;8.80;93.00;;;;;;937672;149;27837;-80
2024/01/30 09:26:24;;;;;;;7.63;6.63;;;8.90;92.70;;;;;;939643;149;28777;-79
2024/01/30 09:28:51;;;;;;;6.80;6.20;;;8.90;92.60;;;;;;928114;150;27330;-79
2024/01/30 09:31:17;;;;;;;7.17;6.20;;;8.90;92.40;;;;;;938805;148;27288;-81
2024/01/30 09:33:47;;;;;;;7.77;6.47;;;9.00;92.20;;;;;;939575;148;27341;-80
2024/01/30 09:39:32;;;;;;;6.70;5.87;;;9.00;92.10;;;;;;928942;148;27372;-82
2024/01/30 09:42:17;;;;;;;6.97;6.07;;;9.10;92.20;;;;;;940157;149;27314;-80
2024/01/30 09:44:43;;;;;;;7.67;6.97;;;9.10;92.10;;;;;;940830;148;27376;-79
2024/01/30 09:47:10;;;;;;;7.20;6.30;;;9.10;92.00;;;;;;941955;149;27894;-81
2024/01/30 09:49:36;;;;;;;7.47;6.27;;;9.10;92.10;;;;;;928051;151;27400;-79
2024/01/30 09:52:03;;;;;;;8.03;7.10;;;9.20;92.10;;;;;;946266;148;27315;-79
2024/01/30 09:54:32;;;;;;;6.43;5.83;;;9.20;92.10;;;;;;943753;149;27406;-80
2024/01/30 09:56:59;;;;;;;7.20;6.30;;;9.30;92.10;;;;;;947491;149;27292;-82
2024/01/30 09:59:25;;;;;;;7.00;6.20;;;9.30;92.00;;;;;;945702;149;27367;-78
2024/01/30 10:01:52;;;;;;;7.93;6.83;;;9.40;91.90;;;;;;942603;149;27276;-79
2024/01/30 10:04:19;;;;;;;7.20;6.50;;;9.40;91.80;;;;;;942678;149;28118;-79
2024/01/30 10:06:45;;;;;;;7.13;6.50;;;9.50;91.80;;;;;;943732;149;27265;-79
2024/01/30 10:09:13;;;;;;;9.43;7.23;;;9.60;91.70;;;;;;943278;149;27403;-82
2024/01/30 10:11:38;;;;;;;7.67;6.70;;;9.60;91.60;;;;;;928830;150;27415;-78
2024/01/30 10:14:05;;;;;;;8.03;6.23;;;9.70;91.60;;;;;;942202;149;27363;-78
2024/01/30 10:16:31;;;;;;;8.07;6.50;;;9.70;91.50;;;;;;943856;149;27369;-79
2024/01/30 10:18:58;;;;;;;8.10;7.13;;;9.80;91.20;;;;;;945085;149;27328;-81
2024/01/30 10:21:25;;;;;;;9.33;6.97;;;9.90;91.50;;;;;;945460;149;27322;-79
2024/01/30 10:23:51;;;;;;;7.40;6.47;;;9.90;91.30;;;;;;945373;149;27345;-84
2024/01/30 10:26:18;;;;;;;7.23;6.53;;;10.00;91.30;;;;;;945078;149;27885;-84
2024/01/30 10:28:44;;;;;;;7.93;7.20;;;10.10;91.40;;;;;;946026;149;27337;-82
2024/01/30 10:31:11;;;;;;;8.67;7.00;;;10.20;91.60;;;;;;945733;149;27365;-84
2024/01/30 10:33:38;;;;;;;6.70;5.97;;;10.30;91.60;;;;;;943472;149;27323;-84
2024/01/30 10:36:04;;;;;;;6.87;6.13;;;10.40;91.70;;;;;;944413;149;27360;-83
2024/01/30 10:38:31;;;;;;;8.97;6.87;;;10.50;91.70;;;;;;945854;149;27305;-82
2024/01/30 10:40:57;;;;;;;7.20;6.50;;;10.60;91.60;;;;;;944835;149;27752;-85
2024/01/30 10:43:24;;;;;;;6.70;6.10;;;10.80;91.30;;;;;;943441;149;27314;-84
2024/01/30 10:45:51;;;;;;;7.55;6.00;;;10.90;91.00;;;;;;942269;148;27407;-84
2024/01/30 10:48:17;;;;;;;7.63;6.47;;;11.00;90.60;;;;;;939246;148;27441;-83
2024/01/30 10:50:44;;;;;;;7.23;6.50;;;11.10;90.40;;;;;;935830;148;27376;-83
2024/01/30 10:53:10;;;;;;;7.33;6.60;;;11.20;90.40;;;;;;903252;153;27513;-84
2024/01/30 10:55:37;;;;;;;6.37;5.78;;;11.30;90.30;;;;;;911894;153;27370;-83
2024/01/30 10:58:03;;;;;;;8.97;6.93;;;11.40;90.20;;;;;;919192;150;27367;-83
2024/01/30 11:00:33;;;;;;;11.03;7.45;;;11.40;89.90;;;;;;903662;153;27507;-84
2024/01/30 11:02:57;;;;;;;7.50;6.70;;;11.50;89.40;;;;;;936672;148;27764;-84
2024/01/30 11:05:26;;;;;;;7.00;6.23;;;11.60;89.10;;;;;;934799;148;27295;-84
2024/01/30 11:07:53;;;;;;;7.20;6.17;;;11.70;88.70;;;;;;933855;148;27395;-84
2024/01/30 11:10:19;;;;;;;8.58;6.80;;;11.80;88.50;;;;;;937823;148;27373;-81
2024/01/30 11:12:46;;;;;;;6.53;5.92;;;11.90;88.30;;;;;;914838;150;27417;-84
2024/01/30 11:15:18;;;;;;;6.80;6.12;;;12.00;88.20;;;;;;935844;148;27407;-84
2024/01/30 11:17:53;;;;;;;5.97;5.37;;;12.10;88.10;;;;;;913926;154;27468;-82
2024/01/30 11:20:19;;;;;;;6.40;5.80;;;12.10;87.80;;;;;;912507;154;27492;-84
2024/01/30 11:22:44;;;;;;;7.65;6.10;;;12.20;87.30;;;;;;912035;154;27410;-84
2024/01/30 11:25:13;;;;;;;5.95;5.35;;;12.30;86.80;;;;;;898835;155;27410;-83
2024/01/30 11:27:40;;;;;;;9.30;6.42;;;12.40;86.60;;;;;;896848;157;28026;-84
2024/01/30 11:30:07;;;;;;;6.92;5.87;;;12.40;86.40;;;;;;913189;154;27385;-84
2024/01/30 11:32:33;;;;;;;6.33;5.42;;;12.50;85.80;;;;;;912798;154;28117;-84
2024/01/30 11:35:00;;;;;;;6.47;5.70;;;12.60;85.40;;;;;;913110;153;27413;-79
2024/01/30 11:37:27;;;;;;;8.58;6.72;;;12.60;85.00;;;;;;912620;154;27349;-79
2024/01/30 11:39:53;;;;;;;6.60;6.00;;;12.70;84.50;;;;;;912872;154;27323;-80
2024/01/30 11:42:19;;;;;;;6.25;5.65;;;12.70;84.00;;;;;;913978;154;27510;-79
2024/01/30 11:44:49;;;;;;;5.77;5.27;;;12.70;83.60;;;;;;913693;154;27300;-79
2024/01/30 11:47:16;;;;;;;8.43;6.78;;;12.80;83.40;;;;;;912420;151;27421;-79
2024/01/30 11:49:42;;;;;;;9.00;7.37;;;12.80;83.20;;;;;;938370;148;27430;-79
2024/01/30 11:52:09;;;;;;;7.83;6.65;;;12.90;83.10;;;;;;914088;153;27359;-79
2024/01/30 11:54:35;;;;;;;8.98;6.83;;;12.90;83.10;;;;;;929170;150;27392;-79
2024/01/30 11:57:02;;;;;;;6.58;5.87;;;13.00;83.20;;;;;;936843;148;27262;-79
2024/01/30 11:59:28;;;;;;;6.40;5.80;;;13.00;83.40;;;;;;934180;149;27972;-78
2024/01/30 12:01:55;;;;;;;6.08;5.47;;;13.10;82.90;;;;;;934462;149;27708;-81
2024/01/30 12:04:22;;;;;;;5.83;5.25;;;13.20;82.90;;;;;;919606;151;27406;-79
2024/01/30 12:06:48;;;;;;;7.00;5.22;;;13.30;83.00;;;;;;937048;148;27246;-79
2024/01/30 12:09:15;;;;;;;5.78;5.20;;;13.30;82.80;;;;;;934039;149;27375;-79
2024/01/30 12:11:45;;;;;;;5.42;4.90;;;13.40;82.70;;;;;;919964;151;27319;-79
2024/01/30 12:14:12;;;;;;;6.08;5.20;;;13.50;82.40;;;;;;921963;151;27340;-79
2024/01/30 12:16:38;;;;;;;5.60;5.10;;;13.60;82.40;;;;;;939008;148;27791;-78
2024/01/30 12:19:05;;;;;;;5.70;5.17;;;13.70;81.90;;;;;;929061;150;27377;-79
2024/01/30 12:21:32;;;;;;;4.85;4.45;;;13.80;81.40;;;;;;930876;150;27259;-78
2024/01/30 12:23:58;;;;;;;5.35;4.85;;;13.80;81.10;;;;;;926752;151;27703;-80
2024/01/30 12:26:28;;;;;;;6.50;5.28;;;13.90;80.90;;;;;;936107;148;27337;-81
2024/01/30 12:28:55;;;;;;;5.97;5.37;;;14.00;80.70;;;;;;941553;148;27935;-78
2024/01/30 12:31:29;;;;;;;9.15;4.75;;;14.10;80.70;;;;;;931229;149;27255;-79
2024/01/30 12:33:56;;;;;;;5.30;4.80;;;14.10;80.20;;;;;;933937;151;27417;-81
2024/01/30 12:36:23;;;;;;;4.92;4.50;;;14.20;80.10;;;;;;931592;150;27334;-79
2024/01/30 12:38:49;;;;;;;6.15;4.72;;;14.30;80.00;;;;;;930940;150;28428;-79
2024/01/30 12:41:16;;;;;;;4.83;4.42;;;14.40;79.90;;;;;;931169;149;27935;-78
2024/01/30 12:43:42;;;;;;;5.40;4.90;;;14.40;79.70;;;;;;932160;149;27322;-79
2024/01/30 12:46:09;;;;;;;6.45;5.33;;;14.50;79.10;;;;;;921560;151;27457;-87
2024/01/30 12:48:36;;;;;;;5.30;4.80;;;14.50;78.80;;;;;;913748;153;27493;-86
2024/01/30 12:51:02;;;;;;;5.30;4.80;;;14.60;78.60;;;;;;941066;149;27366;-86
2024/01/30 12:53:29;;;;;;;6.05;5.17;;;14.60;78.40;;;;;;926599;152;27321;-86
2024/01/30 12:55:55;;;;;;;7.97;5.10;;;14.70;78.30;;;;;;945292;149;27377;-81